Aviation Digital Data Service (ADDS)

Output produced by METARs form (0146 UTC 22 February 2019)
found at http://www.aviationweather.gov/metar/data/
 
METAR text: DGAA 220100Z 25008KT 9999 BKN014 BKN016 29/26 Q1013 NOSIG
Conditions at: DGAA (ACCRA/KOTOKA INT, GH) observed 0100 UTC 22 February 2019
Temperature: 29.0°C (84°F)
Dewpoint: 26.0°C (79°F) [RH = 84%]
Pressure (altimeter): 29.91 inches Hg (1013.0 mb)
Winds: from the WSW (250 degrees) at 9 MPH (8 knots; 4.1 m/s)
Visibility: 6 or more miles (10+ km)
Ceiling: 1400 feet AGL
Clouds: broken clouds at 1400 feet AGL
broken clouds at 1600 feet AGL
Weather: no significant weather observed at this time

METAR text: DGAA 220000Z 23011KT 9999 FEW015 29/26 Q1013 NOSIG
Conditions at: DGAA (ACCRA/KOTOKA INT, GH) observed 0000 UTC 22 February 2019
Temperature: 29.0°C (84°F)
Dewpoint: 26.0°C (79°F) [RH = 84%]
Pressure (altimeter): 29.91 inches Hg (1013.0 mb)
Winds: from the SW (230 degrees) at 13 MPH (11 knots; 5.7 m/s)
Visibility: 6 or more miles (10+ km)
Ceiling: at least 12,000 feet AGL
Clouds: few clouds at 1500 feet AGL
Weather: no significant weather observed at this time

METAR text: DGAA 212200Z 21013KT 9999 FEW015 29/26 Q1013 NOSIG
Conditions at: DGAA (ACCRA/KOTOKA INT, GH) observed 2200 UTC 21 February 2019
Temperature: 29.0°C (84°F)
Dewpoint: 26.0°C (79°F) [RH = 84%]
Pressure (altimeter): 29.91 inches Hg (1013.0 mb)
Winds: from the SSW (210 degrees) at 15 MPH (13 knots; 6.7 m/s)
Visibility: 6 or more miles (10+ km)
Ceiling: at least 12,000 feet AGL
Clouds: few clouds at 1500 feet AGL
Weather: no significant weather observed at this time

METAR text: DGAA 212100Z 21014KT CAVOK 29/26 Q1013 NOSIG
Conditions at: DGAA (ACCRA/KOTOKA INT, GH) observed 2100 UTC 21 February 2019
Temperature: 29.0°C (84°F)
Dewpoint: 26.0°C (79°F) [RH = 84%]
Pressure (altimeter): 29.91 inches Hg (1013.0 mb)
Winds: from the SSW (210 degrees) at 16 MPH (14 knots; 7.2 m/s)
Visibility: 6 or more miles (10+ km)
Ceiling: ceiling and visibility are OK
Clouds: unknown
Weather: no significant weather observed at this time

METAR text: DGAA 212000Z 21014KT CAVOK 29/26 Q1012 NOSIG
Conditions at: DGAA (ACCRA/KOTOKA INT, GH) observed 2000 UTC 21 February 2019
Temperature: 29.0°C (84°F)
Dewpoint: 26.0°C (79°F) [RH = 84%]
Pressure (altimeter): 29.88 inches Hg (1012.0 mb)
Winds: from the SSW (210 degrees) at 16 MPH (14 knots; 7.2 m/s)
Visibility: 6 or more miles (10+ km)
Ceiling: ceiling and visibility are OK
Clouds: unknown
Weather: no significant weather observed at this time

METAR text: DGAA 211900Z 21016KT CAVOK 29/25 Q1011 NOSIG
Conditions at: DGAA (ACCRA/KOTOKA INT, GH) observed 1900 UTC 21 February 2019
Temperature: 29.0°C (84°F)
Dewpoint: 25.0°C (77°F) [RH = 79%]
Pressure (altimeter): 29.85 inches Hg (1011.0 mb)
Winds: from the SSW (210 degrees) at 18 MPH (16 knots; 8.2 m/s)
Visibility: 6 or more miles (10+ km)
Ceiling: ceiling and visibility are OK
Clouds: unknown
Weather: no significant weather observed at this time

METAR text: DGAA 211800Z 21015KT CAVOK 30/25 Q1010 NOSIG
Conditions at: DGAA (ACCRA/KOTOKA INT, GH) observed 1800 UTC 21 February 2019
Temperature: 30.0°C (86°F)
Dewpoint: 25.0°C (77°F) [RH = 75%]
Pressure (altimeter): 29.82 inches Hg (1010.0 mb)
Winds: from the SSW (210 degrees) at 17 MPH (15 knots; 7.7 m/s)
Visibility: 6 or more miles (10+ km)
Ceiling: ceiling and visibility are OK
Clouds: unknown
Weather: no significant weather observed at this time

METAR text: DGAA 211700Z 20015KT CAVOK 31/24 Q1009 NOSIG
Conditions at: DGAA (ACCRA/KOTOKA INT, GH) observed 1700 UTC 21 February 2019
Temperature: 31.0°C (88°F)
Dewpoint: 24.0°C (75°F) [RH = 66%]
Pressure (altimeter): 29.79 inches Hg (1009.0 mb)
Winds: from the SSW (200 degrees) at 17 MPH (15 knots; 7.7 m/s)
Visibility: 6 or more miles (10+ km)
Ceiling: ceiling and visibility are OK
Clouds: unknown
Weather: no significant weather observed at this time

METAR text: DGAA 211600Z 21013KT CAVOK 31/24 Q1009 NOSIG
Conditions at: DGAA (ACCRA/KOTOKA INT, GH) observed 1600 UTC 21 February 2019
Temperature: 31.0°C (88°F)
Dewpoint: 24.0°C (75°F) [RH = 66%]
Pressure (altimeter): 29.79 inches Hg (1009.0 mb)
Winds: from the SSW (210 degrees) at 15 MPH (13 knots; 6.7 m/s)
Visibility: 6 or more miles (10+ km)
Ceiling: ceiling and visibility are OK
Clouds: unknown
Weather: no significant weather observed at this time

METAR text: DGAA 211500Z 20016KT CAVOK 31/25 Q1009 NOSIG
Conditions at: DGAA (ACCRA/KOTOKA INT, GH) observed 1500 UTC 21 February 2019
Temperature: 31.0°C (88°F)
Dewpoint: 25.0°C (77°F) [RH = 71%]
Pressure (altimeter): 29.79 inches Hg (1009.0 mb)
Winds: from the SSW (200 degrees) at 18 MPH (16 knots; 8.2 m/s)
Visibility: 6 or more miles (10+ km)
Ceiling: ceiling and visibility are OK
Clouds: unknown
Weather: no significant weather observed at this time

METAR text: DGAA 211400Z 19013KT 9999 FEW032 32/25 Q1010 NOSIG
Conditions at: DGAA (ACCRA/KOTOKA INT, GH) observed 1400 UTC 21 February 2019
Temperature: 32.0°C (90°F)
Dewpoint: 25.0°C (77°F) [RH = 67%]
Pressure (altimeter): 29.82 inches Hg (1010.0 mb)
Winds: from the S (190 degrees) at 15 MPH (13 knots; 6.7 m/s)
Visibility: 6 or more miles (10+ km)
Ceiling: at least 12,000 feet AGL
Clouds: few clouds at 3200 feet AGL
Weather: no significant weather observed at this time

METAR text: DGAA 211300Z 19013KT 9999 FEW035 32/25 Q1011 NOSIG
Conditions at: DGAA (ACCRA/KOTOKA INT, GH) observed 1300 UTC 21 February 2019
Temperature: 32.0°C (90°F)
Dewpoint: 25.0°C (77°F) [RH = 67%]
Pressure (altimeter): 29.85 inches Hg (1011.0 mb)
Winds: from the S (190 degrees) at 15 MPH (13 knots; 6.7 m/s)
Visibility: 6 or more miles (10+ km)
Ceiling: at least 12,000 feet AGL
Clouds: few clouds at 3500 feet AGL
Weather: no significant weather observed at this time

METAR text: DGAA 211200Z 25011KT 8000 FEW039 32/22 Q1012 NOSIG
Conditions at: DGAA (ACCRA/KOTOKA INT, GH) observed 1200 UTC 21 February 2019
Temperature: 32.0°C (90°F)
Dewpoint: 22.0°C (72°F) [RH = 56%]
Pressure (altimeter): 29.88 inches Hg (1012.0 mb)
Winds: from the WSW (250 degrees) at 13 MPH (11 knots; 5.7 m/s)
Visibility: 5 miles ( 8 km)
Ceiling: at least 12,000 feet AGL
Clouds: few clouds at 3900 feet AGL
Weather: no significant weather observed at this time

METAR text: DGAA 211100Z 24010KT 220V290 8000 NSC 31/23 Q1012 NOSIG
Conditions at: DGAA (ACCRA/KOTOKA INT, GH) observed 1100 UTC 21 February 2019
Temperature: 31.0°C (88°F)
Dewpoint: 23.0°C (73°F) [RH = 63%]
Pressure (altimeter): 29.88 inches Hg (1012.0 mb)
Winds: from the WSW (240 degrees) at 12 MPH (10 knots; 5.1 m/s)
Visibility: 5 miles ( 8 km)
Ceiling: at least 12,000 feet AGL
Clouds: sky clear below 12,000 feet AGL
Weather: no significant weather observed at this time

METAR text: DGAA 211000Z 25011KT 8000 NSC 30/23 Q1013 NOSIG
Conditions at: DGAA (ACCRA/KOTOKA INT, GH) observed 1000 UTC 21 February 2019
Temperature: 30.0°C (86°F)
Dewpoint: 23.0°C (73°F) [RH = 66%]
Pressure (altimeter): 29.91 inches Hg (1013.0 mb)
Winds: from the WSW (250 degrees) at 13 MPH (11 knots; 5.7 m/s)
Visibility: 5 miles ( 8 km)
Ceiling: at least 12,000 feet AGL
Clouds: sky clear below 12,000 feet AGL
Weather: no significant weather observed at this time

METAR text: DGAA 210900Z 27008KT 8000 NSC 29/21 Q1013 NOSIG
Conditions at: DGAA (ACCRA/KOTOKA INT, GH) observed 0900 UTC 21 February 2019
Temperature: 29.0°C (84°F)
Dewpoint: 21.0°C (70°F) [RH = 62%]
Pressure (altimeter): 29.91 inches Hg (1013.0 mb)
Winds: from the W (270 degrees) at 9 MPH (8 knots; 4.1 m/s)
Visibility: 5 miles ( 8 km)
Ceiling: at least 12,000 feet AGL
Clouds: sky clear below 12,000 feet AGL
Weather: no significant weather observed at this time

METAR text: DGAA 210800Z 29006KT 8000 NSC 26/21 Q1013 NOSIG
Conditions at: DGAA (ACCRA/KOTOKA INT, GH) observed 0800 UTC 21 February 2019
Temperature: 26.0°C (79°F)
Dewpoint: 21.0°C (70°F) [RH = 74%]
Pressure (altimeter): 29.91 inches Hg (1013.0 mb)
Winds: from the WNW (290 degrees) at 7 MPH (6 knots; 3.1 m/s)
Visibility: 5 miles ( 8 km)
Ceiling: at least 12,000 feet AGL
Clouds: sky clear below 12,000 feet AGL
Weather: no significant weather observed at this time

METAR text: DGAA 210700Z 26008KT 5000 NSC 25/21 Q1012 NOSIG
Conditions at: DGAA (ACCRA/KOTOKA INT, GH) observed 0700 UTC 21 February 2019
Temperature: 25.0°C (77°F)
Dewpoint: 21.0°C (70°F) [RH = 79%]
Pressure (altimeter): 29.88 inches Hg (1012.0 mb)
Winds: from the W (260 degrees) at 9 MPH (8 knots; 4.1 m/s)
Visibility: 3 miles ( 5 km)
Ceiling: at least 12,000 feet AGL
Clouds: sky clear below 12,000 feet AGL
Weather: no significant weather observed at this time

METAR text: DGAA 210500Z 29008KT CAVOK 24/22 Q1011 NOSIG
Conditions at: DGAA (ACCRA/KOTOKA INT, GH) observed 0500 UTC 21 February 2019
Temperature: 24.0°C (75°F)
Dewpoint: 22.0°C (72°F) [RH = 89%]
Pressure (altimeter): 29.85 inches Hg (1011.0 mb)
Winds: from the WNW (290 degrees) at 9 MPH (8 knots; 4.1 m/s)
Visibility: 6 or more miles (10+ km)
Ceiling: ceiling and visibility are OK
Clouds: unknown
Weather: no significant weather observed at this time

METAR text: DGAA 210400Z 26007KT CAVOK 24/21 Q1011 NOSIG
Conditions at: DGAA (ACCRA/KOTOKA INT, GH) observed 0400 UTC 21 February 2019
Temperature: 24.0°C (75°F)
Dewpoint: 21.0°C (70°F) [RH = 83%]
Pressure (altimeter): 29.85 inches Hg (1011.0 mb)
Winds: from the W (260 degrees) at 8 MPH (7 knots; 3.6 m/s)
Visibility: 6 or more miles (10+ km)
Ceiling: ceiling and visibility are OK
Clouds: unknown
Weather: no significant weather observed at this time

METAR text: DGAA 210300Z 27010KT CAVOK 23/21 Q1011 NOSIG
Conditions at: DGAA (ACCRA/KOTOKA INT, GH) observed 0300 UTC 21 February 2019
Temperature: 23.0°C (73°F)
Dewpoint: 21.0°C (70°F) [RH = 89%]
Pressure (altimeter): 29.85 inches Hg (1011.0 mb)
Winds: from the W (270 degrees) at 12 MPH (10 knots; 5.1 m/s)
Visibility: 6 or more miles (10+ km)
Ceiling: ceiling and visibility are OK
Clouds: unknown
Weather: no significant weather observed at this time

METAR text: DGAA 210200Z 30004KT 220V360 4000 TS FEW026CB 23/22 Q1010 NOSIG
Conditions at: DGAA (ACCRA/KOTOKA INT, GH) observed 0200 UTC 21 February 2019
Temperature: 23.0°C (73°F)
Dewpoint: 22.0°C (72°F) [RH = 94%]
Pressure (altimeter): 29.82 inches Hg (1010.0 mb)
Winds: from the WNW (300 degrees) at 5 MPH (4 knots; 2.1 m/s)
Visibility: 2.49 miles (4.01 km)
Ceiling: at least 12,000 feet AGL
Clouds: few clouds at 2600 feet AGL
Weather: TS  (thunderstorm)

METAR text: DGAA 210100Z 32020G36KT 9999 VCTS SCT016 BKN024 FEW030CB 24/21 Q1013 TEMPO -TSRA
Conditions at: DGAA (ACCRA/KOTOKA INT, GH) observed 0100 UTC 21 February 2019
Temperature: 24.0°C (75°F)
Dewpoint: 21.0°C (70°F) [RH = 83%]
Pressure (altimeter): 29.91 inches Hg (1013.0 mb)
Winds: from the NW (320 degrees) at 23 MPH (20 knots; 10.3 m/s)
gusting to 41 MPH (36 knots; 18.5 m/s)
Visibility: 6 or more miles (10+ km)
Ceiling: 2400 feet AGL
Clouds: scattered clouds at 1600 feet AGL
broken clouds at 2400 feet AGL
few clouds at 3000 feet AGL
Weather: VCTS  (thunderstorm in vicinity)

METAR text: DGAA 210000Z 22010KT 9999 FEW015 29/26 Q1012 NOSIG
Conditions at: DGAA (ACCRA/KOTOKA INT, GH) observed 0000 UTC 21 February 2019
Temperature: 29.0°C (84°F)
Dewpoint: 26.0°C (79°F) [RH = 84%]
Pressure (altimeter): 29.88 inches Hg (1012.0 mb)
Winds: from the SW (220 degrees) at 12 MPH (10 knots; 5.1 m/s)
Visibility: 6 or more miles (10+ km)
Ceiling: at least 12,000 feet AGL
Clouds: few clouds at 1500 feet AGL
Weather: no significant weather observed at this time

METAR text: DGAA 202300Z 22010KT CAVOK 29/26 Q1012 NOSIG
Conditions at: DGAA (ACCRA/KOTOKA INT, GH) observed 2300 UTC 20 February 2019
Temperature: 29.0°C (84°F)
Dewpoint: 26.0°C (79°F) [RH = 84%]
Pressure (altimeter): 29.88 inches Hg (1012.0 mb)
Winds: from the SW (220 degrees) at 12 MPH (10 knots; 5.1 m/s)
Visibility: 6 or more miles (10+ km)
Ceiling: ceiling and visibility are OK
Clouds: unknown
Weather: no significant weather observed at this time

METAR text: DGAA 202200Z 22009KT CAVOK 29/26 Q1012 NOSIG
Conditions at: DGAA (ACCRA/KOTOKA INT, GH) observed 2200 UTC 20 February 2019
Temperature: 29.0°C (84°F)
Dewpoint: 26.0°C (79°F) [RH = 84%]
Pressure (altimeter): 29.88 inches Hg (1012.0 mb)
Winds: from the SW (220 degrees) at 10 MPH (9 knots; 4.6 m/s)
Visibility: 6 or more miles (10+ km)
Ceiling: ceiling and visibility are OK
Clouds: unknown
Weather: no significant weather observed at this time

METAR text: DGAA 202100Z 21011KT CAVOK 29/26 Q1011 NOSIG
Conditions at: DGAA (ACCRA/KOTOKA INT, GH) observed 2100 UTC 20 February 2019
Temperature: 29.0°C (84°F)
Dewpoint: 26.0°C (79°F) [RH = 84%]
Pressure (altimeter): 29.85 inches Hg (1011.0 mb)
Winds: from the SSW (210 degrees) at 13 MPH (11 knots; 5.7 m/s)
Visibility: 6 or more miles (10+ km)
Ceiling: ceiling and visibility are OK
Clouds: unknown
Weather: no significant weather observed at this time

METAR text: DGAA 202000Z 20011KT CAVOK 29/25 Q1010 NOSIG
Conditions at: DGAA (ACCRA/KOTOKA INT, GH) observed 2000 UTC 20 February 2019
Temperature: 29.0°C (84°F)
Dewpoint: 25.0°C (77°F) [RH = 79%]
Pressure (altimeter): 29.82 inches Hg (1010.0 mb)
Winds: from the SSW (200 degrees) at 13 MPH (11 knots; 5.7 m/s)
Visibility: 6 or more miles (10+ km)
Ceiling: ceiling and visibility are OK
Clouds: unknown
Weather: no significant weather observed at this time

METAR text: DGAA 201900Z 20011KT CAVOK 29/25 Q1009 NOSIG
Conditions at: DGAA (ACCRA/KOTOKA INT, GH) observed 1900 UTC 20 February 2019
Temperature: 29.0°C (84°F)
Dewpoint: 25.0°C (77°F) [RH = 79%]
Pressure (altimeter): 29.79 inches Hg (1009.0 mb)
Winds: from the SSW (200 degrees) at 13 MPH (11 knots; 5.7 m/s)
Visibility: 6 or more miles (10+ km)
Ceiling: ceiling and visibility are OK
Clouds: unknown
Weather: no significant weather observed at this time

METAR text: DGAA 201800Z 20013KT 8000 NSC 29/25 Q1008 NOSIG
Conditions at: DGAA (ACCRA/KOTOKA INT, GH) observed 1800 UTC 20 February 2019
Temperature: 29.0°C (84°F)
Dewpoint: 25.0°C (77°F) [RH = 79%]
Pressure (altimeter): 29.76 inches Hg (1008.0 mb)
Winds: from the SSW (200 degrees) at 15 MPH (13 knots; 6.7 m/s)
Visibility: 5 miles ( 8 km)
Ceiling: at least 12,000 feet AGL
Clouds: sky clear below 12,000 feet AGL
Weather: no significant weather observed at this time

METAR text: DGAA 201700Z 19013KT 8000 NSC 30/25 Q1008 NOSIG
Conditions at: DGAA (ACCRA/KOTOKA INT, GH) observed 1700 UTC 20 February 2019
Temperature: 30.0°C (86°F)
Dewpoint: 25.0°C (77°F) [RH = 75%]
Pressure (altimeter): 29.76 inches Hg (1008.0 mb)
Winds: from the S (190 degrees) at 15 MPH (13 knots; 6.7 m/s)
Visibility: 5 miles ( 8 km)
Ceiling: at least 12,000 feet AGL
Clouds: sky clear below 12,000 feet AGL
Weather: no significant weather observed at this time

METAR text: DGAA 201600Z 20015KT 8000 NSC 31/25 Q1008 NOSIG
Conditions at: DGAA (ACCRA/KOTOKA INT, GH) observed 1600 UTC 20 February 2019
Temperature: 31.0°C (88°F)
Dewpoint: 25.0°C (77°F) [RH = 71%]
Pressure (altimeter): 29.76 inches Hg (1008.0 mb)
Winds: from the SSW (200 degrees) at 17 MPH (15 knots; 7.7 m/s)
Visibility: 5 miles ( 8 km)
Ceiling: at least 12,000 feet AGL
Clouds: sky clear below 12,000 feet AGL
Weather: no significant weather observed at this time

METAR text: DGAA 201400Z 18011KT 8000 NSC 32/25 Q1009 NOSIG
Conditions at: DGAA (ACCRA/KOTOKA INT, GH) observed 1400 UTC 20 February 2019
Temperature: 32.0°C (90°F)
Dewpoint: 25.0°C (77°F) [RH = 67%]
Pressure (altimeter): 29.79 inches Hg (1009.0 mb)
Winds: from the S (180 degrees) at 13 MPH (11 knots; 5.7 m/s)
Visibility: 5 miles ( 8 km)
Ceiling: at least 12,000 feet AGL
Clouds: sky clear below 12,000 feet AGL
Weather: no significant weather observed at this time

Forecast for: DGAA (ACCRA/KOTOKA INT, GH)
Text: TAF DGAA 212300Z 2200/2306 26010KT 9999 FEW014
Forecast period: 0000 to 0500 UTC 22 February 2019
Forecast type: FROM: standard forecast or significant change
Winds: from the W (260 degrees) at 12 MPH (10 knots; 5.1 m/s)
Visibility: 6 or more miles 10+ km)
Ceiling: at least 12,000 feet AGL
Clouds: few clouds at 1400 feet AGL
Weather: no significant weather forecast for this period
Text: BECMG 2205/2207 5000 BR
Forecast period: 0500 to 1100 UTC 22 February 2019
Forecast type: BECOMING: Conditions expected to become as follows by 0700 UTC 22 February 2019
Winds: from the W (260 degrees) at 12 MPH (10 knots; 5.1 m/s)
Visibility: 3 miles (5 km)
Ceiling: at least 12,000 feet AGL
Clouds: few clouds at 1400 feet AGL
Weather: BR  (mist)
Text: BECMG 2211/2213 18015KT 8000 NSC
Forecast period: 1100 UTC 22 February 2019 to 0600 UTC 23 February 2019
Forecast type: BECOMING: Conditions expected to become as follows by 1300 UTC 22 February 2019
Winds: from the S (180 degrees) at 17 MPH (15 knots; 7.7 m/s)
Visibility: 5 miles (8 km)
Ceiling: unknown
Clouds: missing
Weather: BR  (mist)